sensor_id;sensor_type;location;lat;lon;timestamp;pressure;altitude;pressure_sealevel;temperature;humidity
53900;BME280;40509;32.858;-116.858;2023-03-23T00:01:29;98306.13;;;18.56;51.83
53900;BME280;40509;32.858;-116.858;2023-03-23T00:03:58;98296.63;;;18.55;51.72
53900;BME280;40509;32.858;-116.858;2023-03-23T00:06:27;98309.69;;;18.55;51.83
53900;BME280;40509;32.858;-116.858;2023-03-23T00:08:59;98298.41;;;18.54;51.59
53900;BME280;40509;32.858;-116.858;2023-03-23T00:11:30;98305.28;;;18.56;51.87
53900;BME280;40509;32.858;-116.858;2023-03-23T00:13:59;98294.84;;;18.56;51.60
53900;BME280;40509;32.858;-116.858;2023-03-23T00:16:32;98293.19;;;18.54;51.92
53900;BME280;40509;32.858;-116.858;2023-03-23T00:19:02;98292.22;;;18.56;51.69
53900;BME280;40509;32.858;-116.858;2023-03-23T00:21:33;98288.78;;;18.55;51.61
53900;BME280;40509;32.858;-116.858;2023-03-23T00:24:12;98293.19;;;18.54;51.98
53900;BME280;40509;32.858;-116.858;2023-03-23T00:26:47;98292.22;;;18.56;51.61
53900;BME280;40509;32.858;-116.858;2023-03-23T00:29:18;98298.16;;;18.58;51.63
53900;BME280;40509;32.858;-116.858;2023-03-23T00:31:50;98293.88;;;18.57;51.65
53900;BME280;40509;32.858;-116.858;2023-03-23T00:34:22;98297.44;;;18.56;51.96
53900;BME280;40509;32.858;-116.858;2023-03-23T00:36:53;98304.47;;;18.55;51.96
53900;BME280;40509;32.858;-116.858;2023-03-23T00:39:25;98306.13;;;18.56;51.89
53900;BME280;40509;32.858;-116.858;2023-03-23T00:41:54;98306.41;;;18.53;51.39
53900;BME280;40509;32.858;-116.858;2023-03-23T00:44:31;98310.28;;;18.59;51.49
53900;BME280;40509;32.858;-116.858;2023-03-23T00:47:02;98308.50;;;18.59;51.10
53900;BME280;40509;32.858;-116.858;2023-03-23T00:49:31;98306.69;;;18.60;51.41
53900;BME280;40509;32.858;-116.858;2023-03-23T00:52:02;98308.63;;;18.58;51.23
53900;BME280;40509;32.858;-116.858;2023-03-23T00:54:30;98312.91;;;18.59;52.02
53900;BME280;40509;32.858;-116.858;2023-03-23T00:56:57;98318.00;;;18.60;52.36
53900;BME280;40509;32.858;-116.858;2023-03-23T00:59:24;98312.06;;;18.58;52.46
53900;BME280;40509;32.858;-116.858;2023-03-23T01:01:52;98305.88;;;18.59;52.93
53900;BME280;40509;32.858;-116.858;2023-03-23T01:04:19;98320.75;;;18.59;52.87
53900;BME280;40509;32.858;-116.858;2023-03-23T01:06:49;98316.34;;;18.59;52.89
53900;BME280;40509;32.858;-116.858;2023-03-23T01:09:21;98320.75;;;18.59;53.18
53900;BME280;40509;32.858;-116.858;2023-03-23T01:11:50;98318.97;;;18.59;52.97
53900;BME280;40509;32.858;-116.858;2023-03-23T01:14:18;98327.63;;;18.60;53.10
53900;BME280;40509;32.858;-116.858;2023-03-23T01:16:48;98332.16;;;18.58;53.46
53900;BME280;40509;32.858;-116.858;2023-03-23T01:19:15;98330.63;;;18.55;53.36
53900;BME280;40509;32.858;-116.858;2023-03-23T01:21:42;98327.06;;;18.56;53.30
53900;BME280;40509;32.858;-116.858;2023-03-23T01:24:10;98332.41;;;18.54;53.47
53900;BME280;40509;32.858;-116.858;2023-03-23T01:26:37;98332.97;;;18.58;53.61
53900;BME280;40509;32.858;-116.858;2023-03-23T01:29:04;98333.09;;;18.57;53.57
53900;BME280;40509;32.858;-116.858;2023-03-23T01:31:32;98332.28;;;18.56;53.47
53900;BME280;40509;32.858;-116.858;2023-03-23T01:34:01;98332.41;;;18.54;53.43
53900;BME280;40509;32.858;-116.858;2023-03-23T01:36:29;98335.84;;;18.55;53.45
53900;BME280;40509;32.858;-116.858;2023-03-23T01:39:05;98334.03;;;18.56;53.72
53900;BME280;40509;32.858;-116.858;2023-03-23T01:41:34;98331.44;;;18.56;53.60
53900;BME280;40509;32.858;-116.858;2023-03-23T01:46:53;98336.78;;;18.54;53.87
53900;BME280;40509;32.858;-116.858;2023-03-23T01:49:26;98329.78;;;18.54;53.67
53900;BME280;40509;32.858;-116.858;2023-03-23T01:52:08;98339.53;;;18.52;53.81
53900;BME280;40509;32.858;-116.858;2023-03-23T01:54:37;98332.63;;;18.51;53.65
53900;BME280;40509;32.858;-116.858;2023-03-23T01:57:11;98334.44;;;18.51;54.04
53900;BME280;40509;32.858;-116.858;2023-03-23T01:59:45;98336.09;;;18.52;53.72
53900;BME280;40509;32.858;-116.858;2023-03-23T02:02:25;98335.25;;;18.51;53.65
53900;BME280;40509;32.858;-116.858;2023-03-23T02:04:59;98335.03;;;18.54;53.57
53900;BME280;40509;32.858;-116.858;2023-03-23T02:07:32;98336.91;;;18.52;53.89
53900;BME280;40509;32.858;-116.858;2023-03-23T02:10:01;98348.09;;;18.54;53.67
53900;BME280;40509;32.858;-116.858;2023-03-23T02:12:33;98343.00;;;18.53;53.80
53900;BME280;40509;32.858;-116.858;2023-03-23T02:15:02;98349.25;;;18.62;53.50
53900;BME280;40509;32.858;-116.858;2023-03-23T02:17:48;98350.94;;;18.63;53.32
53900;BME280;40509;32.858;-116.858;2023-03-23T02:25:48;98342.59;;;19.13;51.89
53900;BME280;40509;32.858;-116.858;2023-03-23T02:33:56;98344.75;;;19.40;51.64
53900;BME280;40509;32.858;-116.858;2023-03-23T02:36:46;98356.69;;;19.54;51.38
53900;BME280;40509;32.858;-116.858;2023-03-23T02:39:45;98357.94;;;19.60;51.33
53900;BME280;40509;32.858;-116.858;2023-03-23T02:42:22;98352.34;;;19.64;51.38
53900;BME280;40509;32.858;-116.858;2023-03-23T02:44:52;98356.63;;;19.86;50.96
53900;BME280;40509;32.858;-116.858;2023-03-23T02:47:24;98363.78;;;19.84;50.57
53900;BME280;40509;32.858;-116.858;2023-03-23T02:49:54;98357.06;;;19.92;50.72
53900;BME280;40509;32.858;-116.858;2023-03-23T02:52:27;98357.63;;;19.95;50.64
53900;BME280;40509;32.858;-116.858;2023-03-23T02:54:57;98364.25;;;19.99;50.59
53900;BME280;40509;32.858;-116.858;2023-03-23T02:57:29;98364.19;;;20.11;50.04
53900;BME280;40509;32.858;-116.858;2023-03-23T03:00:00;98364.09;;;20.22;50.16
53900;BME280;40509;32.858;-116.858;2023-03-23T03:02:33;98363.13;;;20.23;50.30
53900;BME280;40509;32.858;-116.858;2023-03-23T03:05:22;98364.13;;;20.32;49.92
53900;BME280;40509;32.858;-116.858;2023-03-23T03:11:07;98363.19;;;20.43;49.59
53900;BME280;40509;32.858;-116.858;2023-03-23T03:13:47;98360.31;;;20.46;49.64
53900;BME280;40509;32.858;-116.858;2023-03-23T03:18:54;98369.75;;;20.58;49.47
53900;BME280;40509;32.858;-116.858;2023-03-23T03:21:25;98368.38;;;20.64;49.40
53900;BME280;40509;32.858;-116.858;2023-03-23T03:23:58;98374.09;;;20.69;49.08
53900;BME280;40509;32.858;-116.858;2023-03-23T03:26:30;98380.16;;;20.79;49.12
53900;BME280;40509;32.858;-116.858;2023-03-23T03:29:20;98380.72;;;20.83;49.09
53900;BME280;40509;32.858;-116.858;2023-03-23T03:31:53;98383.06;;;20.86;49.10
53900;BME280;40509;32.858;-116.858;2023-03-23T03:34:27;98386.25;;;20.89;48.65
53900;BME280;40509;32.858;-116.858;2023-03-23T03:36:55;98385.84;;;20.94;48.68
53900;BME280;40509;32.858;-116.858;2023-03-23T03:39:26;98398.00;;;20.95;48.54
53900;BME280;40509;32.858;-116.858;2023-03-23T03:41:55;98401.34;;;20.97;48.78
53900;BME280;40509;32.858;-116.858;2023-03-23T03:44:22;98395.97;;;20.99;48.52
53900;BME280;40509;32.858;-116.858;2023-03-23T03:46:49;98397.63;;;21.10;48.64
53900;BME280;40509;32.858;-116.858;2023-03-23T03:49:16;98395.28;;;21.16;48.29
53900;BME280;40509;32.858;-116.858;2023-03-23T03:51:44;98399.97;;;21.22;48.06
53900;BME280;40509;32.858;-116.858;2023-03-23T03:54:19;98401.22;;;21.18;48.52
53900;BME280;40509;32.858;-116.858;2023-03-23T03:56:46;98402.59;;;21.22;48.18
53900;BME280;40509;32.858;-116.858;2023-03-23T03:59:39;98412.84;;;21.45;48.11
53900;BME280;40509;32.858;-116.858;2023-03-23T04:02:19;98407.03;;;21.42;48.28
53900;BME280;40509;32.858;-116.858;2023-03-23T04:04:49;98408.13;;;21.39;48.54
53900;BME280;40509;32.858;-116.858;2023-03-23T04:07:19;98414.63;;;21.45;48.55
53900;BME280;40509;32.858;-116.858;2023-03-23T04:09:49;98434.53;;;21.47;48.46
53900;BME280;40509;32.858;-116.858;2023-03-23T04:12:19;98431.91;;;21.47;48.42
53900;BME280;40509;32.858;-116.858;2023-03-23T04:15:07;98434.94;;;21.52;48.30
53900;BME280;40509;32.858;-116.858;2023-03-23T04:17:36;98433.72;;;21.56;48.23
53900;BME280;40509;32.858;-116.858;2023-03-23T04:20:05;98442.97;;;21.61;48.17
53900;BME280;40509;32.858;-116.858;2023-03-23T04:22:41;98433.75;;;21.66;47.97
53900;BME280;40509;32.858;-116.858;2023-03-23T04:25:11;98443.97;;;21.69;48.06
53900;BME280;40509;32.858;-116.858;2023-03-23T04:27:41;98442.72;;;21.73;47.55
53900;BME280;40509;32.858;-116.858;2023-03-23T04:30:14;98447.81;;;21.75;47.78
53900;BME280;40509;32.858;-116.858;2023-03-23T04:32:49;98459.56;;;21.81;47.53
53900;BME280;40509;32.858;-116.858;2023-03-23T04:35:25;98460.28;;;21.83;47.61
53900;BME280;40509;32.858;-116.858;2023-03-23T04:38:05;98470.22;;;21.79;47.75
53900;BME280;40509;32.858;-116.858;2023-03-23T04:40:39;98474.94;;;21.85;47.35
53900;BME280;40509;32.858;-116.858;2023-03-23T04:43:19;98475.75;;;21.86;47.51
53900;BME280;40509;32.858;-116.858;2023-03-23T04:46:00;98470.91;;;21.91;47.59
53900;BME280;40509;32.858;-116.858;2023-03-23T04:48:31;98473.13;;;21.96;47.53
53900;BME280;40509;32.858;-116.858;2023-03-23T04:51:08;98474.91;;;21.95;47.59
53900;BME280;40509;32.858;-116.858;2023-03-23T04:53:37;98473.13;;;21.96;47.54
53900;BME280;40509;32.858;-116.858;2023-03-23T04:56:05;98478.78;;;22.01;47.20
53900;BME280;40509;32.858;-116.858;2023-03-23T04:58:39;98476.00;;;22.02;47.04
53900;BME280;40509;32.858;-116.858;2023-03-23T05:01:10;98478.50;;;22.04;46.98
53900;BME280;40509;32.858;-116.858;2023-03-23T05:03:49;98481.81;;;22.06;46.92
53900;BME280;40509;32.858;-116.858;2023-03-23T05:06:17;98483.50;;;22.07;46.88
53900;BME280;40509;32.858;-116.858;2023-03-23T05:08:45;98492.88;;;22.10;46.97
53900;BME280;40509;32.858;-116.858;2023-03-23T05:11:12;98491.63;;;22.14;47.16
53900;BME280;40509;32.858;-116.858;2023-03-23T05:13:42;98489.13;;;22.12;46.72
53900;BME280;40509;32.858;-116.858;2023-03-23T05:16:12;98496.75;;;22.15;46.74
53900;BME280;40509;32.858;-116.858;2023-03-23T05:18:41;98493.13;;;22.16;46.75
53900;BME280;40509;32.858;-116.858;2023-03-23T05:21:11;98503.69;;;22.06;47.01
53900;BME280;40509;32.858;-116.858;2023-03-23T05:23:43;98493.88;;;21.79;47.58
53900;BME280;40509;32.858;-116.858;2023-03-23T05:26:17;98494.84;;;21.68;47.87
53900;BME280;40509;32.858;-116.858;2023-03-23T05:28:44;98496.25;;;21.63;48.01
53900;BME280;40509;32.858;-116.858;2023-03-23T05:31:22;98500.38;;;21.55;48.09
53900;BME280;40509;32.858;-116.858;2023-03-23T05:33:52;98495.34;;;21.52;48.30
53900;BME280;40509;32.858;-116.858;2023-03-23T05:36:28;98498.72;;;21.54;48.16
53900;BME280;40509;32.858;-116.858;2023-03-23T05:39:15;98502.69;;;21.49;48.29
53900;BME280;40509;32.858;-116.858;2023-03-23T05:42:04;98507.53;;;21.44;48.18
53900;BME280;40509;32.858;-116.858;2023-03-23T05:44:48;98507.25;;;21.37;48.35
53900;BME280;40509;32.858;-116.858;2023-03-23T05:47:16;98516.66;;;21.39;48.38
53900;BME280;40509;32.858;-116.858;2023-03-23T05:49:51;98516.78;;;21.38;48.49
53900;BME280;40509;32.858;-116.858;2023-03-23T05:52:23;98524.91;;;21.35;48.50
53900;BME280;40509;32.858;-116.858;2023-03-23T05:54:52;98528.09;;;21.29;48.67
53900;BME280;40509;32.858;-116.858;2023-03-23T05:57:21;98524.75;;;21.27;48.64
53900;BME280;40509;32.858;-116.858;2023-03-23T05:59:59;98539.13;;;21.22;48.59
53900;BME280;40509;32.858;-116.858;2023-03-23T06:02:28;98538.97;;;21.14;48.79
53900;BME280;40509;32.858;-116.858;2023-03-23T06:04:57;98542.38;;;21.05;48.99
53900;BME280;40509;32.858;-116.858;2023-03-23T06:07:28;98538.38;;;21.01;49.04
53900;BME280;40509;32.858;-116.858;2023-03-23T06:10:02;98539.88;;;20.94;49.30
53900;BME280;40509;32.858;-116.858;2023-03-23T06:12:38;98550.06;;;20.87;49.29
53900;BME280;40509;32.858;-116.858;2023-03-23T06:15:25;98551.56;;;20.80;49.38
53900;BME280;40509;32.858;-116.858;2023-03-23T06:18:14;98555.53;;;20.74;49.47
53900;BME280;40509;32.858;-116.858;2023-03-23T06:20:57;98560.19;;;20.70;49.47
53900;BME280;40509;32.858;-116.858;2023-03-23T06:23:31;98557.22;;;20.64;49.56
53900;BME280;40509;32.858;-116.858;2023-03-23T06:26:01;98554.03;;;20.60;49.69
53900;BME280;40509;32.858;-116.858;2023-03-23T06:28:29;98555.84;;;20.60;49.59
53900;BME280;40509;32.858;-116.858;2023-03-23T06:31:01;98561.72;;;20.52;49.81
53900;BME280;40509;32.858;-116.858;2023-03-23T06:33:35;98557.56;;;20.49;49.98
53900;BME280;40509;32.858;-116.858;2023-03-23T06:36:21;98559.84;;;20.43;49.99
53900;BME280;40509;32.858;-116.858;2023-03-23T06:39:03;98561.78;;;20.41;49.76
53900;BME280;40509;32.858;-116.858;2023-03-23T06:41:44;98554.44;;;20.34;50.00
53900;BME280;40509;32.858;-116.858;2023-03-23T06:44:11;98555.78;;;20.29;50.11
53900;BME280;40509;32.858;-116.858;2023-03-23T06:46:41;98552.34;;;20.28;50.40
53900;BME280;40509;32.858;-116.858;2023-03-23T06:49:22;98547.91;;;20.29;49.97
53900;BME280;40509;32.858;-116.858;2023-03-23T06:52:00;98551.06;;;20.23;49.92
53900;BME280;40509;32.858;-116.858;2023-03-23T06:54:31;98546.06;;;20.19;50.09
53900;BME280;40509;32.858;-116.858;2023-03-23T06:57:01;98549.66;;;20.18;50.12
53900;BME280;40509;32.858;-116.858;2023-03-23T06:59:28;98549.66;;;20.18;50.25
53900;BME280;40509;32.858;-116.858;2023-03-23T07:01:56;98549.88;;;20.15;50.25
53900;BME280;40509;32.858;-116.858;2023-03-23T07:04:24;98551.81;;;20.13;50.30
53900;BME280;40509;32.858;-116.858;2023-03-23T07:07:02;98545.16;;;20.09;50.42
53900;BME280;40509;32.858;-116.858;2023-03-23T07:09:35;98549.69;;;20.07;50.41
53900;BME280;40509;32.858;-116.858;2023-03-23T07:12:03;98541.25;;;20.03;50.25
53900;BME280;40509;32.858;-116.858;2023-03-23T07:14:37;98553.66;;;20.01;50.17
53900;BME280;40509;32.858;-116.858;2023-03-23T07:17:04;98554.72;;;19.99;50.23
53900;BME280;40509;32.858;-116.858;2023-03-23T07:19:35;98559.28;;;19.97;50.29
53900;BME280;40509;32.858;-116.858;2023-03-23T07:22:05;98552.38;;;19.96;50.61
53900;BME280;40509;32.858;-116.858;2023-03-23T07:24:34;98550.25;;;19.90;50.53
53900;BME280;40509;32.858;-116.858;2023-03-23T07:27:13;98553.13;;;19.86;50.70
53900;BME280;40509;32.858;-116.858;2023-03-23T07:29:40;98557.53;;;19.86;50.60
53900;BME280;40509;32.858;-116.858;2023-03-23T07:32:15;98555.75;;;19.86;50.44
53900;BME280;40509;32.858;-116.858;2023-03-23T07:34:42;98556.94;;;19.82;50.40
53900;BME280;40509;32.858;-116.858;2023-03-23T07:37:39;98552.03;;;19.78;50.71
53900;BME280;40509;32.858;-116.858;2023-03-23T07:40:07;98552.28;;;19.75;50.47
53900;BME280;40509;32.858;-116.858;2023-03-23T07:42:45;98551.47;;;19.74;50.61
53900;BME280;40509;32.858;-116.858;2023-03-23T07:45:23;98554.22;;;19.73;50.58
53900;BME280;40509;32.858;-116.858;2023-03-23T07:47:51;98559.00;;;19.67;50.75
53900;BME280;40509;32.858;-116.858;2023-03-23T07:50:20;98561.72;;;19.66;50.86
53900;BME280;40509;32.858;-116.858;2023-03-23T07:52:57;98566.03;;;19.67;50.79
53900;BME280;40509;32.858;-116.858;2023-03-23T07:55:27;98555.78;;;19.64;50.92
53900;BME280;40509;32.858;-116.858;2023-03-23T07:58:01;98562.81;;;19.63;50.88
53900;BME280;40509;32.858;-116.858;2023-03-23T08:00:29;98563.88;;;19.61;50.84
53900;BME280;40509;32.858;-116.858;2023-03-23T08:02:57;98559.97;;;19.55;51.09
53900;BME280;40509;32.858;-116.858;2023-03-23T08:05:51;98563.78;;;19.51;51.04
53900;BME280;40509;32.858;-116.858;2023-03-23T08:08:45;98567.75;;;19.45;51.41
53900;BME280;40509;32.858;-116.858;2023-03-23T08:11:39;98570.94;;;19.49;50.81
53900;BME280;40509;32.858;-116.858;2023-03-23T08:14:29;98568.44;;;19.47;51.00
53900;BME280;40509;32.858;-116.858;2023-03-23T08:17:12;98572.97;;;19.45;51.12
53900;BME280;40509;32.858;-116.858;2023-03-23T08:19:58;98568.81;;;19.43;50.89
53900;BME280;40509;32.858;-116.858;2023-03-23T08:22:25;98569.63;;;19.43;50.76
53900;BME280;40509;32.858;-116.858;2023-03-23T08:25:09;98569.03;;;19.40;51.05
53900;BME280;40509;32.858;-116.858;2023-03-23T08:27:51;98570.00;;;19.38;51.00
53900;BME280;40509;32.858;-116.858;2023-03-23T08:30:30;98576.44;;;19.34;51.04
53900;BME280;40509;32.858;-116.858;2023-03-23T08:33:33;98568.69;;;19.33;50.89
53900;BME280;40509;32.858;-116.858;2023-03-23T08:36:20;98573.91;;;19.33;50.49
53900;BME280;40509;32.858;-116.858;2023-03-23T08:38:54;98578.47;;;19.31;50.90
53900;BME280;40509;32.858;-116.858;2023-03-23T08:41:33;98580.47;;;19.27;50.94
53900;BME280;40509;32.858;-116.858;2023-03-23T08:44:13;98584.88;;;19.27;50.76
53900;BME280;40509;32.858;-116.858;2023-03-23T08:46:43;98593.81;;;19.24;51.08
53900;BME280;40509;32.858;-116.858;2023-03-23T08:49:31;98585.59;;;19.17;51.27
53900;BME280;40509;32.858;-116.858;2023-03-23T08:52:33;98584.19;;;19.13;51.17
53900;BME280;40509;32.858;-116.858;2023-03-23T08:55:18;98584.31;;;19.12;51.31
53900;BME280;40509;32.858;-116.858;2023-03-23T08:57:53;98582.38;;;19.14;51.38
53900;BME280;40509;32.858;-116.858;2023-03-23T09:00:45;98588.47;;;19.14;51.16
53900;BME280;40509;32.858;-116.858;2023-03-23T09:03:44;98576.09;;;19.16;50.87
53900;BME280;40509;32.858;-116.858;2023-03-23T09:06:30;98580.75;;;19.13;51.03
53900;BME280;40509;32.858;-116.858;2023-03-23T09:08:57;98577.28;;;19.12;50.92
53900;BME280;40509;32.858;-116.858;2023-03-23T09:11:27;98575.25;;;19.16;51.12
53900;BME280;40509;32.858;-116.858;2023-03-23T09:13:54;98573.72;;;19.13;50.95
53900;BME280;40509;32.858;-116.858;2023-03-23T09:16:22;98575.38;;;19.03;50.98
53900;BME280;40509;32.858;-116.858;2023-03-23T09:18:49;98577.03;;;19.04;50.83
53900;BME280;40509;32.858;-116.858;2023-03-23T09:21:17;98578.84;;;19.03;51.17
53900;BME280;40509;32.858;-116.858;2023-03-23T09:23:44;98580.97;;;18.98;50.79
53900;BME280;40509;32.858;-116.858;2023-03-23T09:26:12;98578.09;;;19.01;51.15
53900;BME280;40509;32.858;-116.858;2023-03-23T09:28:39;98582.78;;;18.98;51.13
53900;BME280;40509;32.858;-116.858;2023-03-23T09:31:07;98584.41;;;18.99;51.23
53900;BME280;40509;32.858;-116.858;2023-03-23T09:33:34;98578.47;;;18.97;51.16
53900;BME280;40509;32.858;-116.858;2023-03-23T09:36:02;98584.41;;;18.99;51.26
53900;BME280;40509;32.858;-116.858;2023-03-23T09:38:29;98578.72;;;18.94;51.19
53900;BME280;40509;32.858;-116.858;2023-03-23T09:43:58;98568.13;;;18.95;50.97
53900;BME280;40509;32.858;-116.858;2023-03-23T09:46:58;98572.38;;;18.85;51.21
53900;BME280;40509;32.858;-116.858;2023-03-23T09:49:37;98564.41;;;18.86;50.97
53900;BME280;40509;32.858;-116.858;2023-03-23T09:52:15;98565.47;;;18.84;51.21
53900;BME280;40509;32.858;-116.858;2023-03-23T09:54:46;98567.13;;;18.85;51.03
53900;BME280;40509;32.858;-116.858;2023-03-23T10:00:32;98567.97;;;18.85;51.09
53900;BME280;40509;32.858;-116.858;2023-03-23T10:05:37;98567.97;;;18.85;51.03
53900;BME280;40509;32.858;-116.858;2023-03-23T10:08:15;98567.50;;;18.80;51.13
53900;BME280;40509;32.858;-116.858;2023-03-23T10:16:31;98553.09;;;18.63;51.25
53900;BME280;40509;32.858;-116.858;2023-03-23T10:19:12;98544.41;;;18.63;51.23
53900;BME280;40509;32.858;-116.858;2023-03-23T10:21:50;98550.72;;;18.60;51.25
53900;BME280;40509;32.858;-116.858;2023-03-23T10:24:23;98547.75;;;18.65;51.29
53900;BME280;40509;32.858;-116.858;2023-03-23T10:29:41;98545.97;;;18.65;51.11
53900;BME280;40509;32.858;-116.858;2023-03-23T10:32:14;98553.94;;;18.64;51.39
53900;BME280;40509;32.858;-116.858;2023-03-23T10:35:05;98555.59;;;18.65;50.97
53900;BME280;40509;32.858;-116.858;2023-03-23T10:37:38;98558.44;;;18.62;50.76
53900;BME280;40509;32.858;-116.858;2023-03-23T10:40:18;98562.47;;;18.66;51.16
53900;BME280;40509;32.858;-116.858;2023-03-23T10:42:48;98559.63;;;18.58;50.96
53900;BME280;40509;32.858;-116.858;2023-03-23T10:45:29;98567.59;;;18.56;51.11
53900;BME280;40509;32.858;-116.858;2023-03-23T10:48:14;98561.19;;;18.60;51.00
53900;BME280;40509;32.858;-116.858;2023-03-23T10:50:48;98559.13;;;18.52;51.25
53900;BME280;40509;32.858;-116.858;2023-03-23T10:53:21;98563.66;;;18.50;50.91
53900;BME280;40509;32.858;-116.858;2023-03-23T10:55:49;98557.47;;;18.51;51.07
53900;BME280;40509;32.858;-116.858;2023-03-23T10:58:25;98555.94;;;18.49;51.00
53900;BME280;40509;32.858;-116.858;2023-03-23T11:00:56;98561.16;;;18.49;51.07
53900;BME280;40509;32.858;-116.858;2023-03-23T11:06:03;98553.66;;;18.44;51.07
53900;BME280;40509;32.858;-116.858;2023-03-23T11:11:20;98551.03;;;18.44;51.25
53900;BME280;40509;32.858;-116.858;2023-03-23T11:13:57;98553.03;;;18.41;51.03
53900;BME280;40509;32.858;-116.858;2023-03-23T11:16:32;98548.66;;;18.41;51.06
53900;BME280;40509;32.858;-116.858;2023-03-23T11:19:15;98545.69;;;18.46;50.81
53900;BME280;40509;32.858;-116.858;2023-03-23T11:21:52;98551.28;;;18.41;51.34
53900;BME280;40509;32.858;-116.858;2023-03-23T11:24:25;98554.59;;;18.43;50.99
53900;BME280;40509;32.858;-116.858;2023-03-23T11:26:55;98550.53;;;18.39;50.86
53900;BME280;40509;32.858;-116.858;2023-03-23T11:29:26;98555.06;;;18.37;51.10
53900;BME280;40509;32.858;-116.858;2023-03-23T11:32:04;98558.63;;;18.36;51.23
53900;BME280;40509;32.858;-116.858;2023-03-23T11:34:57;98555.19;;;18.35;51.14
53900;BME280;40509;32.858;-116.858;2023-03-23T11:45:47;98563.22;;;18.21;51.33
53900;BME280;40509;32.858;-116.858;2023-03-23T11:49:09;98570.72;;;18.26;51.65
53900;BME280;40509;32.858;-116.858;2023-03-23T11:51:39;98575.94;;;18.26;51.19
53900;BME280;40509;32.858;-116.858;2023-03-23T11:56:45;98569.06;;;18.25;51.19
53900;BME280;40509;32.858;-116.858;2023-03-23T11:59:16;98571.44;;;18.28;51.09
53900;BME280;40509;32.858;-116.858;2023-03-23T12:15:30;98582.34;;;18.22;50.85
53900;BME280;40509;32.858;-116.858;2023-03-23T12:24:16;98583.03;;;18.12;51.37
53900;BME280;40509;32.858;-116.858;2023-03-23T12:27:04;98576.84;;;18.13;51.24
53900;BME280;40509;32.858;-116.858;2023-03-23T12:34:56;98576.84;;;18.13;51.24
53900;BME280;40509;32.858;-116.858;2023-03-23T12:48:49;98586.75;;;17.97;51.51
53900;BME280;40509;32.858;-116.858;2023-03-23T12:51:42;98583.47;;;18.06;51.44
53900;BME280;40509;32.858;-116.858;2023-03-23T12:56:52;98593.41;;;18.01;51.24
53900;BME280;40509;32.858;-116.858;2023-03-23T13:02:50;98609.22;;;17.99;51.18
53900;BME280;40509;32.858;-116.858;2023-03-23T13:08:26;98617.06;;;17.99;51.15
53900;BME280;40509;32.858;-116.858;2023-03-23T13:11:00;98617.28;;;17.96;51.17
53900;BME280;40509;32.858;-116.858;2023-03-23T13:13:46;98630.84;;;18.01;51.14
53900;BME280;40509;32.858;-116.858;2023-03-23T13:24:50;98653.00;;;17.96;51.30
53900;BME280;40509;32.858;-116.858;2023-03-23T13:27:26;98652.28;;;17.94;51.52
53900;BME280;40509;32.858;-116.858;2023-03-23T13:29:57;98660.84;;;17.96;51.15
53900;BME280;40509;32.858;-116.858;2023-03-23T13:32:43;98658.84;;;17.99;51.15
53900;BME280;40509;32.858;-116.858;2023-03-23T13:35:13;98658.03;;;17.99;52.74
53900;BME280;40509;32.858;-116.858;2023-03-23T13:37:49;98656.13;;;18.01;51.08
53900;BME280;40509;32.858;-116.858;2023-03-23T13:40:28;98671.94;;;17.86;51.45
53900;BME280;40509;32.858;-116.858;2023-03-23T13:42:59;98669.22;;;17.88;51.62
53900;BME280;40509;32.858;-116.858;2023-03-23T13:51:00;98674.31;;;17.90;51.64
53900;BME280;40509;32.858;-116.858;2023-03-23T13:53:46;98676.72;;;17.93;51.45
53900;BME280;40509;32.858;-116.858;2023-03-23T13:56:35;98675.38;;;17.87;51.63
53900;BME280;40509;32.858;-116.858;2023-03-23T13:59:33;98675.06;;;17.92;51.64
53900;BME280;40509;32.858;-116.858;2023-03-23T14:04:54;98684.13;;;17.86;51.55
53900;BME280;40509;32.858;-116.858;2023-03-23T14:07:22;98687.50;;;17.88;51.38
53900;BME280;40509;32.858;-116.858;2023-03-23T14:09:51;98692.50;;;17.78;51.44
53900;BME280;40509;32.858;-116.858;2023-03-23T14:12:27;98692.44;;;17.80;51.62
53900;BME280;40509;32.858;-116.858;2023-03-23T14:15:02;98692.50;;;17.78;51.89
53900;BME280;40509;32.858;-116.858;2023-03-23T14:17:39;98701.81;;;17.82;51.84
53900;BME280;40509;32.858;-116.858;2023-03-23T14:20:33;98706.09;;;17.83;51.69
53900;BME280;40509;32.858;-116.858;2023-03-23T14:23:02;98708.81;;;17.82;51.67
53900;BME280;40509;32.858;-116.858;2023-03-23T14:25:30;98707.75;;;17.84;51.71
53900;BME280;40509;32.858;-116.858;2023-03-23T14:28:01;98713.41;;;17.78;51.60
53900;BME280;40509;32.858;-116.858;2023-03-23T14:30:36;98725.53;;;17.79;51.57
53900;BME280;40509;32.858;-116.858;2023-03-23T14:33:05;98724.06;;;17.75;51.82
53900;BME280;40509;32.858;-116.858;2023-03-23T14:35:39;98721.97;;;17.80;51.75
53900;BME280;40509;32.858;-116.858;2023-03-23T14:38:34;98718.94;;;17.86;51.49
53900;BME280;40509;32.858;-116.858;2023-03-23T14:41:04;98714.78;;;17.84;51.64
53900;BME280;40509;32.858;-116.858;2023-03-23T14:43:34;98719.53;;;17.90;51.37
53900;BME280;40509;32.858;-116.858;2023-03-23T14:46:09;98724.06;;;17.88;51.43
53900;BME280;40509;32.858;-116.858;2023-03-23T14:48:38;98723.44;;;17.84;51.62
53900;BME280;40509;32.858;-116.858;2023-03-23T14:51:07;98730.63;;;17.81;51.92
53900;BME280;40509;32.858;-116.858;2023-03-23T14:53:43;98725.09;;;17.85;51.90
53900;BME280;40509;32.858;-116.858;2023-03-23T14:56:15;98731.38;;;17.83;51.91
53900;BME280;40509;32.858;-116.858;2023-03-23T14:58:47;98723.53;;;17.83;51.68
53900;BME280;40509;32.858;-116.858;2023-03-23T15:01:20;98724.47;;;17.82;51.85
53900;BME280;40509;32.858;-116.858;2023-03-23T15:03:57;98729.06;;;17.78;51.93